Time;durP1;ratioP1;P1;durP2;ratioP2;P2;SDS_P1;SDS_P2;PMS_P1;PMS_P2;Temp;Humidity;BMP_temperature;BMP_pressure;BME280_temperature;BME280_humidity;BME280_pressure;Samples;Min_cycle;Max_cycle;Signal;HPM_P1;HPM_P2
2021/08/12 00:00:05;;;;;;;8.10;4.30;;;;;5.70;101825.00;;;;5058670;28;20612;-69
2021/08/12 00:02:32;;;;;;;5.38;2.63;;;;;5.60;101821.00;;;;5073179;28;20942;-69
2021/08/12 00:04:59;;;;;;;5.95;2.33;;;;;5.60;101823.00;;;;5073286;28;20047;-70
2021/08/12 00:07:25;;;;;;;5.30;1.60;;;;;5.50;101839.00;;;;5072455;28;20083;-70
2021/08/12 00:09:52;;;;;;;4.38;1.50;;;;;5.60;101834.00;;;;5072353;28;20028;-70
2021/08/12 00:12:19;;;;;;;4.65;1.58;;;;;5.50;101835.00;;;;5072240;28;20527;-68
2021/08/12 00:14:45;;;;;;;2.53;1.33;;;;;5.50;101828.00;;;;5072562;28;20024;-69
2021/08/12 00:17:12;;;;;;;3.22;1.55;;;;;5.40;101831.00;;;;5072203;28;20060;-70
2021/08/12 00:19:38;;;;;;;4.93;2.00;;;;;5.40;101828.00;;;;5072230;28;20033;-69
2021/08/12 00:22:05;;;;;;;2.85;1.30;;;;;5.40;101829.00;;;;5072082;28;20040;-70
2021/08/12 00:24:31;;;;;;;5.55;2.28;;;;;5.40;101813.00;;;;5071956;28;20024;-70
2021/08/12 00:27:00;;;;;;;6.10;1.90;;;;;5.30;101807.00;;;;5071928;28;20506;-68
2021/08/12 00:29:27;;;;;;;7.65;2.13;;;;;5.20;101821.00;;;;5072431;28;20028;-70
2021/08/12 00:31:53;;;;;;;3.78;1.52;;;;;5.20;101834.00;;;;5071990;28;20111;-69
2021/08/12 00:34:20;;;;;;;7.15;2.33;;;;;5.20;101823.00;;;;5071572;28;20029;-68
2021/08/12 00:36:46;;;;;;;3.60;1.33;;;;;5.20;101809.00;;;;5071658;28;20093;-67
2021/08/12 00:39:13;;;;;;;3.60;2.10;;;;;5.30;101828.00;;;;5072218;28;20394;-70
2021/08/12 00:41:40;;;;;;;7.97;2.53;;;;;5.30;101813.00;;;;5071704;28;20507;-69
2021/08/12 00:44:07;;;;;;;5.45;2.90;;;;;5.40;101823.00;;;;5070913;28;20028;-70
2021/08/12 00:46:34;;;;;;;7.40;3.47;;;;;5.30;101843.00;;;;5068204;28;20020;-69
2021/08/12 00:49:01;;;;;;;4.07;3.03;;;;;5.30;101827.00;;;;5068762;28;20020;-70
2021/08/12 00:51:29;;;;;;;5.68;3.45;;;;;5.30;101823.00;;;;5068579;28;20036;-68
2021/08/12 00:53:57;;;;;;;8.38;2.85;;;;;5.20;101824.00;;;;5069242;28;20036;-68
2021/08/12 00:56:29;;;;;;;3.97;1.58;;;;;5.20;101819.00;;;;5069152;28;20066;-69
2021/08/12 00:58:55;;;;;;;2.72;1.30;;;;;5.10;101825.00;;;;5068446;28;20139;-69
2021/08/12 01:01:22;;;;;;;5.72;1.65;;;;;5.10;101840.00;;;;5051484;28;20060;-68
2021/08/12 01:03:48;;;;;;;3.45;1.40;;;;;5.00;101824.00;;;;5048397;28;20035;-67
2021/08/12 01:06:22;;;;;;;5.32;1.63;;;;;4.90;101835.00;;;;5048015;28;20403;-68
2021/08/12 01:08:55;;;;;;;6.78;2.40;;;;;4.90;101828.00;;;;5046291;28;20028;-69
2021/08/12 01:11:36;;;;;;;4.95;1.70;;;;;4.90;101833.00;;;;5047808;28;20025;-69
2021/08/12 01:14:35;;;;;;;4.68;1.50;;;;;4.90;101830.00;;;;5048199;28;20029;-70
2021/08/12 01:17:13;;;;;;;3.85;1.83;;;;;4.90;101811.00;;;;5041669;28;20102;-68
2021/08/12 01:20:07;;;;;;;7.03;1.50;;;;;4.80;101829.00;;;;5048474;28;20029;-69
2021/08/12 01:22:54;;;;;;;3.10;1.35;;;;;4.60;101824.00;;;;5048489;28;20029;-68
2021/08/12 01:25:27;;;;;;;4.00;1.50;;;;;4.60;101832.00;;;;5048666;28;20079;-70
2021/08/12 01:28:03;;;;;;;15.20;1.98;;;;;4.60;101831.00;;;;5047933;28;20039;-70
2021/08/12 01:30:33;;;;;;;6.00;1.58;;;;;4.60;101823.00;;;;5048330;28;20104;-70
2021/08/12 01:33:29;;;;;;;7.23;2.10;;;;;4.60;101824.00;;;;5048529;28;20029;-67
2021/08/12 01:35:58;;;;;;;6.57;2.13;;;;;4.60;101812.00;;;;5048122;28;20021;-70
2021/08/12 01:38:27;;;;;;;10.13;2.22;;;;;4.70;101816.00;;;;5048358;28;20342;-68
2021/08/12 01:40:56;;;;;;;8.40;2.40;;;;;4.70;101840.00;;;;5048298;28;20476;-69
2021/08/12 01:43:24;;;;;;;5.20;2.10;;;;;4.70;101845.00;;;;5048538;28;20468;-70
2021/08/12 01:45:58;;;;;;;7.28;1.85;;;;;4.70;101826.00;;;;5047889;28;20411;-68
2021/08/12 01:48:28;;;;;;;8.23;2.72;;;;;4.70;101849.00;;;;5047695;28;20499;-68
2021/08/12 01:50:56;;;;;;;4.63;1.90;;;;;4.70;101832.00;;;;5047812;28;20032;-70
2021/08/12 01:53:24;;;;;;;7.78;2.90;;;;;4.60;101829.00;;;;5048127;28;20033;-70
2021/08/12 01:55:52;;;;;;;5.55;3.05;;;;;4.70;101844.00;;;;5047910;28;20029;-68
2021/08/12 01:58:22;;;;;;;4.15;2.50;;;;;4.70;101840.00;;;;5048054;28;20032;-68
2021/08/12 02:00:51;;;;;;;7.32;3.28;;;;;4.70;101844.00;;;;5060567;28;20029;-70
2021/08/12 02:03:20;;;;;;;5.68;3.10;;;;;4.60;101841.00;;;;5066983;28;20563;-70
2021/08/12 02:05:49;;;;;;;7.28;2.33;;;;;4.60;101843.00;;;;5067513;28;20536;-70
2021/08/12 02:08:22;;;;;;;3.03;2.03;;;;;4.60;101848.00;;;;5067351;28;20057;-68
2021/08/12 02:10:50;;;;;;;3.85;2.15;;;;;4.60;101842.00;;;;5067716;28;20025;-68
2021/08/12 02:13:17;;;;;;;11.82;3.45;;;;;4.60;101848.00;;;;5067487;28;20078;-70
2021/08/12 02:15:44;;;;;;;8.00;2.67;;;;;4.60;101850.00;;;;5067053;28;20028;-70
2021/08/12 02:18:10;;;;;;;6.68;2.80;;;;;4.60;101839.00;;;;5067720;28;20116;-68
2021/08/12 02:20:41;;;;;;;13.88;2.65;;;;;4.60;101859.00;;;;5067103;28;20040;-68
2021/08/12 02:23:19;;;;;;;8.65;2.90;;;;;4.60;101848.00;;;;5066760;28;20564;-69
2021/08/12 02:26:00;;;;;;;9.40;2.17;;;;;4.60;101859.00;;;;5067025;28;20077;-68
2021/08/12 02:28:30;;;;;;;4.30;1.80;;;;;4.60;101841.00;;;;5066932;28;20025;-68
2021/08/12 02:30:59;;;;;;;7.75;1.80;;;;;4.60;101851.00;;;;5067776;28;20544;-70
2021/08/12 02:33:33;;;;;;;10.77;2.00;;;;;4.50;101835.00;;;;5066613;28;20399;-70
2021/08/12 02:36:00;;;;;;;4.75;2.38;;;;;4.40;101858.00;;;;5066812;28;20028;-70
2021/08/12 02:38:28;;;;;;;6.32;2.65;;;;;4.40;101843.00;;;;5066469;28;20032;-69
2021/08/12 02:40:57;;;;;;;6.65;2.55;;;;;4.30;101845.00;;;;5066463;28;20642;-68
2021/08/12 02:43:25;;;;;;;4.60;2.17;;;;;4.20;101862.00;;;;5066846;28;20029;-69
2021/08/12 02:45:55;;;;;;;3.83;1.98;;;;;4.20;101840.00;;;;5066857;28;20021;-69
2021/08/12 02:48:24;;;;;;;4.95;2.15;;;;;4.30;101855.00;;;;5066469;28;20087;-69
2021/08/12 02:50:52;;;;;;;9.80;2.20;;;;;4.30;101837.00;;;;5066853;28;20027;-70
2021/08/12 02:53:21;;;;;;;6.05;2.13;;;;;4.30;101856.00;;;;5048426;28;20078;-70
2021/08/12 02:55:48;;;;;;;6.80;1.85;;;;;4.20;101841.00;;;;5067022;28;20417;-70
2021/08/12 02:58:16;;;;;;;4.47;1.80;;;;;4.20;101851.00;;;;5066283;28;20028;-70
2021/08/12 03:00:43;;;;;;;5.50;2.20;;;;;4.20;101871.00;;;;5054642;28;20082;-68
2021/08/12 03:03:11;;;;;;;4.85;2.20;;;;;4.20;101871.00;;;;5046320;28;20040;-67
2021/08/12 03:05:39;;;;;;;2.67;1.60;;;;;4.20;101853.00;;;;5045978;28;20033;-67
2021/08/12 03:08:12;;;;;;;6.32;1.55;;;;;4.30;101857.00;;;;5045688;28;20048;-70
2021/08/12 03:10:40;;;;;;;7.78;1.85;;;;;4.20;101871.00;;;;5046111;28;20116;-69
2021/08/12 03:13:07;;;;;;;2.67;1.75;;;;;4.20;101881.00;;;;5046115;28;20037;-69
2021/08/12 03:15:34;;;;;;;5.85;2.50;;;;;4.20;101858.00;;;;5046016;28;20021;-69
2021/08/12 03:18:04;;;;;;;5.78;2.13;;;;;4.20;101872.00;;;;5046433;28;20144;-68
2021/08/12 03:20:31;;;;;;;5.32;2.70;;;;;4.20;101871.00;;;;5045656;28;20118;-70
2021/08/12 03:22:58;;;;;;;12.32;2.60;;;;;4.10;101878.00;;;;5046575;28;20052;-68
2021/08/12 03:25:25;;;;;;;5.65;2.13;;;;;4.10;101881.00;;;;5046456;28;20060;-70
2021/08/12 03:27:52;;;;;;;5.18;1.85;;;;;4.00;101888.00;;;;5046266;28;20033;-68
2021/08/12 03:30:19;;;;;;;4.80;1.85;;;;;4.10;101870.00;;;;5046650;28;20515;-70
2021/08/12 03:32:46;;;;;;;10.25;5.25;;;;;4.00;101861.00;;;;5046690;28;20120;-69
2021/08/12 03:35:12;;;;;;;3.78;2.13;;;;;4.00;101879.00;;;;5046091;28;20033;-68
2021/08/12 03:37:39;;;;;;;7.10;2.10;;;;;4.00;101875.00;;;;5046341;28;20067;-70
2021/08/12 03:40:06;;;;;;;2.85;1.38;;;;;4.00;101884.00;;;;5046668;28;20151;-67
2021/08/12 03:42:33;;;;;;;11.43;1.85;;;;;4.00;101860.00;;;;5046562;28;20020;-68
2021/08/12 03:44:59;;;;;;;3.45;1.80;;;;;4.10;101857.00;;;;5045596;28;20040;-70
2021/08/12 03:47:26;;;;;;;5.38;2.15;;;;;4.00;101877.00;;;;5045417;28;20407;-68
2021/08/12 03:49:52;;;;;;;5.10;2.00;;;;;4.00;101858.00;;;;5045919;28;20534;-67
2021/08/12 03:52:19;;;;;;;7.55;1.65;;;;;4.00;101858.00;;;;5045812;28;20499;-68
2021/08/12 03:54:46;;;;;;;7.03;1.85;;;;;4.10;101871.00;;;;5046070;28;20033;-69
2021/08/12 03:57:12;;;;;;;6.78;1.65;;;;;4.00;101885.00;;;;5046125;28;20036;-68
2021/08/12 03:59:39;;;;;;;5.45;1.70;;;;;4.00;101882.00;;;;5048496;28;20032;-69
2021/08/12 04:02:05;;;;;;;10.90;1.80;;;;;4.00;101872.00;;;;5065709;28;20032;-69
2021/08/12 04:04:32;;;;;;;6.32;1.95;;;;;4.10;101884.00;;;;5066095;28;20035;-70
2021/08/12 04:06:59;;;;;;;10.43;1.90;;;;;4.10;101859.00;;;;5065379;28;20203;-70
2021/08/12 04:09:25;;;;;;;6.70;1.77;;;;;4.10;101863.00;;;;5065732;28;20055;-68
2021/08/12 04:11:52;;;;;;;4.65;1.40;;;;;4.10;101857.00;;;;5065597;28;20024;-69
2021/08/12 04:14:18;;;;;;;4.82;1.67;;;;;4.10;101848.00;;;;5066298;28;20032;-70
2021/08/12 04:16:45;;;;;;;4.03;1.58;;;;;4.10;101843.00;;;;5065447;28;20025;-69
2021/08/12 04:19:14;;;;;;;5.15;1.90;;;;;4.00;101847.00;;;;5065790;28;20610;-68
2021/08/12 04:21:41;;;;;;;7.15;1.42;;;;;4.10;101860.00;;;;5068534;28;20056;-70
2021/08/12 04:24:08;;;;;;;3.90;1.50;;;;;4.00;101856.00;;;;5068940;28;20028;-69
2021/08/12 04:26:34;;;;;;;4.25;1.50;;;;;4.00;101845.00;;;;5051229;28;20077;-68
2021/08/12 04:29:01;;;;;;;4.20;1.63;;;;;3.90;101850.00;;;;5051381;28;20029;-69
2021/08/12 04:31:27;;;;;;;8.77;1.65;;;;;3.80;101864.00;;;;5070134;28;20021;-70
2021/08/12 04:33:54;;;;;;;7.18;1.70;;;;;3.80;101863.00;;;;5069220;28;20021;-69
2021/08/12 04:36:20;;;;;;;10.23;1.35;;;;;3.80;101855.00;;;;5069480;28;20039;-68
2021/08/12 04:38:47;;;;;;;8.55;1.50;;;;;3.80;101849.00;;;;5069149;28;20033;-68
2021/08/12 04:41:13;;;;;;;8.60;1.60;;;;;3.80;101874.00;;;;5068894;28;20032;-67
2021/08/12 04:43:40;;;;;;;4.07;1.70;;;;;3.80;101852.00;;;;5068556;28;20533;-68
2021/08/12 04:46:07;;;;;;;7.97;2.05;;;;;3.70;101863.00;;;;5069159;28;20054;-69
2021/08/12 04:48:34;;;;;;;3.67;1.58;;;;;3.70;101851.00;;;;5069068;28;20025;-68
2021/08/12 04:51:01;;;;;;;7.55;2.95;;;;;3.50;101844.00;;;;5069424;28;20111;-70
2021/08/12 04:53:28;;;;;;;11.77;2.08;;;;;3.40;101844.00;;;;5068711;28;20024;-69
2021/08/12 04:55:55;;;;;;;7.10;2.05;;;;;3.30;101853.00;;;;5069346;28;20033;-70
2021/08/12 04:58:21;;;;;;;5.32;1.88;;;;;3.40;101840.00;;;;5050366;28;20519;-70
2021/08/12 05:00:47;;;;;;;5.88;1.85;;;;;3.30;101855.00;;;;5055779;28;20044;-69
2021/08/12 05:03:14;;;;;;;5.45;1.67;;;;;3.20;101843.00;;;;5048832;28;20492;-67
2021/08/12 05:05:41;;;;;;;5.78;2.13;;;;;3.10;101851.00;;;;5048773;28;20020;-69
2021/08/12 05:08:07;;;;;;;7.13;1.73;;;;;3.10;101824.00;;;;5048285;28;20087;-68
2021/08/12 05:10:34;;;;;;;14.23;2.70;;;;;3.10;101825.00;;;;5048854;28;20119;-70
2021/08/12 05:13:00;;;;;;;5.78;1.77;;;;;3.00;101812.00;;;;5047927;28;20475;-70
2021/08/12 05:15:28;;;;;;;3.85;1.98;;;;;3.00;101824.00;;;;5048756;28;20112;-70
2021/08/12 05:17:54;;;;;;;7.30;1.83;;;;;3.10;101812.00;;;;5048165;28;20432;-70
2021/08/12 05:20:21;;;;;;;8.07;1.80;;;;;3.20;101811.00;;;;5048508;28;20128;-68
2021/08/12 05:22:48;;;;;;;2.13;1.50;;;;;3.40;101807.00;;;;5048519;28;20040;-68
2021/08/12 05:25:15;;;;;;;2.58;1.50;;;;;3.50;101833.00;;;;5048135;28;20029;-69
2021/08/12 05:27:41;;;;;;;6.38;1.90;;;;;3.60;101830.00;;;;5048511;28;20092;-67
2021/08/12 05:30:08;;;;;;;5.40;1.50;;;;;3.70;101839.00;;;;5048989;28;20071;-68
2021/08/12 05:32:35;;;;;;;3.97;1.48;;;;;3.80;101824.00;;;;5047950;28;20562;-69
2021/08/12 05:35:01;;;;;;;7.53;1.70;;;;;4.00;101803.00;;;;5048015;28;20031;-70
2021/08/12 05:37:28;;;;;;;12.20;1.60;;;;;4.20;101817.00;;;;5047993;28;20036;-70
2021/08/12 05:39:54;;;;;;;5.82;1.52;;;;;4.30;101810.00;;;;5047869;28;20036;-69
2021/08/12 05:42:21;;;;;;;9.32;1.60;;;;;4.40;101823.00;;;;5048423;28;20495;-68
2021/08/12 05:44:47;;;;;;;6.28;1.65;;;;;4.60;101836.00;;;;5048057;28;20057;-69
2021/08/12 05:47:14;;;;;;;5.50;2.58;;;;;4.70;101824.00;;;;5048671;28;20447;-70
2021/08/12 05:49:41;;;;;;;3.58;1.20;;;;;4.80;101817.00;;;;5048036;28;20021;-69
2021/08/12 05:52:07;;;;;;;10.65;1.90;;;;;4.90;101798.00;;;;5047814;28;20483;-68
2021/08/12 05:54:34;;;;;;;14.10;2.25;;;;;5.00;101787.00;;;;5047372;28;20028;-69
2021/08/12 05:57:00;;;;;;;9.98;1.90;;;;;4.90;101775.00;;;;5048013;28;20447;-69
2021/08/12 05:59:27;;;;;;;2.70;1.55;;;;;4.90;101803.00;;;;5048960;28;20075;-67
2021/08/12 06:01:53;;;;;;;6.75;1.83;;;;;4.90;101793.00;;;;5067344;28;20032;-70
2021/08/12 06:04:20;;;;;;;6.78;2.13;;;;;4.90;101783.00;;;;5067030;28;20033;-70
2021/08/12 06:06:46;;;;;;;11.35;2.13;;;;;4.90;101799.00;;;;5067282;28;20375;-70
2021/08/12 06:09:13;;;;;;;5.63;1.73;;;;;4.90;101800.00;;;;5066969;28;20028;-67
2021/08/12 06:11:40;;;;;;;8.15;1.90;;;;;5.00;101797.00;;;;5067636;28;20064;-68
2021/08/12 06:14:06;;;;;;;3.75;1.90;;;;;5.00;101771.00;;;;5067208;28;20418;-68
2021/08/12 06:16:33;;;;;;;7.97;1.90;;;;;5.00;101786.00;;;;5067142;28;20039;-68
2021/08/12 06:18:59;;;;;;;6.95;1.90;;;;;5.00;101785.00;;;;5067224;28;20064;-69
2021/08/12 06:21:26;;;;;;;7.50;1.73;;;;;5.00;101759.00;;;;5066638;28;20028;-69
2021/08/12 06:23:53;;;;;;;4.65;1.52;;;;;5.00;101747.00;;;;5066731;28;20107;-68
2021/08/12 06:26:19;;;;;;;6.25;1.98;;;;;5.00;101764.00;;;;5066944;28;20040;-68
2021/08/12 06:28:46;;;;;;;5.75;1.50;;;;;5.00;101739.00;;;;5067012;28;20051;-70
2021/08/12 06:31:13;;;;;;;4.60;1.40;;;;;5.00;101763.00;;;;5066932;28;20016;-69
2021/08/12 06:33:40;;;;;;;5.55;2.15;;;;;4.90;101755.00;;;;5066929;28;20112;-70
2021/08/12 06:36:06;;;;;;;4.72;1.58;;;;;4.90;101756.00;;;;5067088;28;20432;-69
2021/08/12 06:38:33;;;;;;;4.10;1.75;;;;;4.80;101755.00;;;;5066480;28;20028;-68
2021/08/12 06:40:59;;;;;;;6.25;3.05;;;;;4.80;101766.00;;;;5066620;28;20040;-68
2021/08/12 06:43:26;;;;;;;2.67;1.38;;;;;4.80;101745.00;;;;5066109;28;20051;-71
2021/08/12 06:45:52;;;;;;;4.88;1.50;;;;;4.70;101744.00;;;;5066516;28;20056;-70
2021/08/12 06:48:19;;;;;;;4.28;1.50;;;;;4.70;101762.00;;;;5066812;28;20039;-68
2021/08/12 06:50:46;;;;;;;5.97;1.52;;;;;4.70;101760.00;;;;5066403;28;20077;-70
2021/08/12 06:53:12;;;;;;;3.47;1.30;;;;;4.70;101752.00;;;;5066262;28;20413;-70
2021/08/12 06:55:39;;;;;;;5.30;1.25;;;;;4.60;101745.00;;;;5066953;28;20035;-71
2021/08/12 06:58:05;;;;;;;4.55;1.52;;;;;4.50;101733.00;;;;5066558;28;20021;-69
2021/08/12 07:00:32;;;;;;;8.50;1.40;;;;;4.40;101710.00;;;;5056763;28;20032;-68
2021/08/12 07:02:58;;;;;;;4.40;1.30;;;;;4.20;101726.00;;;;5046291;28;20051;-71
2021/08/12 07:05:25;;;;;;;6.13;1.98;;;;;4.10;101736.00;;;;5046126;28;20117;-70
2021/08/12 07:07:52;;;;;;;5.65;1.33;;;;;4.10;101746.00;;;;5046280;28;20059;-68
2021/08/12 07:10:18;;;;;;;7.78;1.55;;;;;4.00;101728.00;;;;5046870;28;20029;-67
2021/08/12 07:12:45;;;;;;;4.80;1.40;;;;;3.90;101717.00;;;;5046891;28;20028;-69
2021/08/12 07:15:12;;;;;;;5.32;1.65;;;;;3.80;101722.00;;;;5046313;28;20036;-67
2021/08/12 07:17:38;;;;;;;6.18;1.40;;;;;3.70;101735.00;;;;5046147;28;20055;-70
2021/08/12 07:20:05;;;;;;;3.15;1.35;;;;;3.70;101740.00;;;;5045693;28;20095;-68
2021/08/12 07:22:32;;;;;;;2.17;1.40;;;;;3.70;101742.00;;;;5046559;28;20044;-70
2021/08/12 07:25:01;;;;;;;6.10;1.63;;;;;3.70;101726.00;;;;5046819;28;20423;-68
2021/08/12 07:27:28;;;;;;;5.72;1.45;;;;;3.70;101727.00;;;;5046179;28;20055;-70
2021/08/12 07:29:55;;;;;;;4.00;1.38;;;;;3.70;101732.00;;;;5046455;28;20041;-70
2021/08/12 07:32:21;;;;;;;7.15;2.10;;;;;3.70;101706.00;;;;5045629;28;20033;-70
2021/08/12 07:34:48;;;;;;;6.30;1.67;;;;;3.70;101731.00;;;;5046129;28;20112;-68
2021/08/12 07:37:14;;;;;;;7.57;2.00;;;;;3.70;101710.00;;;;5046339;28;20025;-70
2021/08/12 07:39:41;;;;;;;5.55;1.42;;;;;3.60;101726.00;;;;5046043;28;20523;-70
2021/08/12 07:42:08;;;;;;;5.18;1.40;;;;;3.50;101722.00;;;;5046089;28;20429;-71
2021/08/12 07:44:34;;;;;;;4.90;1.50;;;;;3.50;101736.00;;;;5045766;28;20033;-68
2021/08/12 07:47:01;;;;;;;4.97;1.27;;;;;3.40;101743.00;;;;5046047;28;20484;-70
2021/08/12 07:49:27;;;;;;;6.25;1.90;;;;;3.30;101718.00;;;;5046130;28;20025;-71
2021/08/12 07:51:54;;;;;;;2.63;1.45;;;;;3.30;101744.00;;;;5045880;28;20021;-70
2021/08/12 07:54:21;;;;;;;11.85;1.85;;;;;3.30;101715.00;;;;5046987;28;20029;-70
2021/08/12 07:56:48;;;;;;;4.97;1.42;;;;;3.20;101735.00;;;;5050296;28;20041;-69
2021/08/12 07:59:15;;;;;;;5.07;1.35;;;;;3.20;101718.00;;;;5049911;28;20587;-70
2021/08/12 08:01:42;;;;;;;7.05;1.80;;;;;3.30;101720.00;;;;5069333;28;20124;-69
2021/08/12 08:04:08;;;;;;;6.22;1.65;;;;;3.20;101724.00;;;;5069947;28;20571;-68
2021/08/12 08:06:35;;;;;;;6.25;1.67;;;;;3.10;101731.00;;;;5069660;28;20144;-70
2021/08/12 08:09:01;;;;;;;8.13;2.10;;;;;3.10;101724.00;;;;5070129;28;20024;-69
2021/08/12 08:11:28;;;;;;;6.70;1.95;;;;;3.10;101719.00;;;;5070431;28;20035;-68
2021/08/12 08:13:54;;;;;;;7.45;2.20;;;;;3.10;101716.00;;;;5069876;28;20039;-70
2021/08/12 08:16:22;;;;;;;4.38;1.90;;;;;3.00;101747.00;;;;5069416;28;20056;-70
2021/08/12 08:18:49;;;;;;;6.13;2.13;;;;;2.90;101741.00;;;;5069316;28;20068;-68
2021/08/12 08:21:15;;;;;;;12.25;2.70;;;;;3.00;101743.00;;;;5069767;28;20063;-68
2021/08/12 08:23:42;;;;;;;8.82;2.53;;;;;3.00;101732.00;;;;5069277;28;20123;-70
2021/08/12 08:26:08;;;;;;;9.30;3.05;;;;;3.00;101741.00;;;;5069484;28;20491;-67
2021/08/12 08:28:35;;;;;;;5.97;3.10;;;;;2.90;101739.00;;;;5069302;28;20475;-71
2021/08/12 08:31:02;;;;;;;7.90;2.20;;;;;2.90;101735.00;;;;5069133;28;20033;-68
2021/08/12 08:33:28;;;;;;;6.13;1.92;;;;;2.90;101749.00;;;;5069351;28;20032;-67
2021/08/12 08:35:55;;;;;;;18.65;2.53;;;;;3.00;101745.00;;;;5069481;28;20036;-70
2021/08/12 08:38:21;;;;;;;14.07;2.45;;;;;3.00;101737.00;;;;5069029;28;20507;-69
2021/08/12 08:40:48;;;;;;;8.82;2.47;;;;;3.00;101760.00;;;;5069011;28;20133;-68
2021/08/12 08:43:19;;;;;;;7.07;2.60;;;;;3.00;101749.00;;;;5068149;28;20040;-68
2021/08/12 08:45:46;;;;;;;5.50;2.63;;;;;2.90;101762.00;;;;5069141;28;20321;-69
2021/08/12 08:48:16;;;;;;;9.25;2.72;;;;;3.00;101771.00;;;;5068781;28;20029;-67
2021/08/12 08:50:45;;;;;;;9.13;3.03;;;;;2.90;101773.00;;;;5068898;28;20036;-69
2021/08/12 08:53:16;;;;;;;5.32;2.42;;;;;2.80;101766.00;;;;5068666;28;20029;-69
2021/08/12 08:55:43;;;;;;;11.70;2.55;;;;;2.80;101758.00;;;;5068744;28;20070;-69
2021/08/12 08:58:11;;;;;;;7.18;2.35;;;;;2.80;101778.00;;;;5069015;28;20064;-70
2021/08/12 09:00:38;;;;;;;6.72;2.53;;;;;2.90;101780.00;;;;5058162;28;20037;-70
2021/08/12 09:03:05;;;;;;;8.38;2.70;;;;;2.80;101776.00;;;;5049240;28;20037;-69
2021/08/12 09:05:32;;;;;;;7.00;2.83;;;;;2.70;101781.00;;;;5048582;28;20535;-68
2021/08/12 09:08:00;;;;;;;5.72;2.88;;;;;2.70;101779.00;;;;5048199;28;20053;-70
2021/08/12 09:10:26;;;;;;;7.30;2.22;;;;;2.80;101804.00;;;;5048488;28;20037;-68
2021/08/12 09:12:53;;;;;;;7.93;2.50;;;;;2.70;101806.00;;;;5048415;28;20025;-71
2021/08/12 09:15:23;;;;;;;8.30;2.45;;;;;2.80;101806.00;;;;5048363;28;20033;-70
2021/08/12 09:17:52;;;;;;;15.45;2.75;;;;;2.70;101809.00;;;;5048406;28;20029;-70
2021/08/12 09:20:23;;;;;;;5.97;2.40;;;;;2.80;101845.00;;;;5048302;28;20400;-68
2021/08/12 09:22:53;;;;;;;6.53;2.35;;;;;2.70;101830.00;;;;5048320;28;20476;-70
2021/08/12 09:25:30;;;;;;;6.95;2.13;;;;;2.60;101829.00;;;;5049266;28;20036;-69
2021/08/12 09:28:16;;;;;;;9.38;2.40;;;;;2.60;101815.00;;;;5048094;28;20025;-70
2021/08/12 09:30:50;;;;;;;8.38;2.53;;;;;2.50;101828.00;;;;5047706;28;20025;-70
2021/08/12 09:33:18;;;;;;;8.77;2.72;;;;;2.50;101832.00;;;;5045995;28;21212;-68
2021/08/12 09:35:45;;;;;;;3.75;2.10;;;;;2.50;101829.00;;;;5047128;28;20025;-67
2021/08/12 09:38:14;;;;;;;9.05;2.75;;;;;2.50;101821.00;;;;5047948;28;20526;-70
2021/08/12 09:40:42;;;;;;;3.58;1.98;;;;;2.40;101817.00;;;;5047093;28;20068;-68
2021/08/12 09:43:12;;;;;;;9.25;3.17;;;;;2.40;101823.00;;;;5047823;28;20055;-68
2021/08/12 09:45:41;;;;;;;12.65;2.42;;;;;2.40;101820.00;;;;5047667;28;20048;-69
2021/08/12 09:48:14;;;;;;;4.85;2.60;;;;;2.50;101843.00;;;;5048042;28;20033;-70
2021/08/12 09:50:42;;;;;;;5.72;2.60;;;;;2.50;101847.00;;;;5047775;28;20111;-68
2021/08/12 09:53:17;;;;;;;8.85;2.53;;;;;2.50;101834.00;;;;5047402;28;20035;-67
2021/08/12 09:55:44;;;;;;;6.25;2.08;;;;;2.50;101843.00;;;;5046458;28;20114;-68
2021/08/12 09:58:12;;;;;;;5.10;2.10;;;;;2.50;101854.00;;;;5047435;28;20025;-68
2021/08/12 10:00:44;;;;;;;7.85;2.20;;;;;2.50;101846.00;;;;5058460;28;20171;-70
2021/08/12 10:03:25;;;;;;;7.72;2.10;;;;;2.50;101833.00;;;;5067742;28;20450;-67
2021/08/12 10:05:54;;;;;;;17.85;2.70;;;;;2.50;101843.00;;;;5067357;28;20032;-69
2021/08/12 10:08:34;;;;;;;10.32;2.60;;;;;2.60;101870.00;;;;5067239;28;20087;-70
2021/08/12 10:11:19;;;;;;;15.60;2.60;;;;;2.60;101873.00;;;;5067065;28;20024;-70
2021/08/12 10:13:51;;;;;;;16.27;2.78;;;;;2.70;101857.00;;;;5067316;28;20476;-68
2021/08/12 10:16:19;;;;;;;8.10;2.72;;;;;2.60;101858.00;;;;5068069;28;20041;-69
2021/08/12 10:18:47;;;;;;;8.93;2.53;;;;;2.80;101872.00;;;;5067276;28;20442;-69
2021/08/12 10:21:17;;;;;;;14.98;4.35;;;;;2.80;101849.00;;;;5066844;28;20031;-70
2021/08/12 10:23:46;;;;;;;5.30;3.55;;;;;2.70;101852.00;;;;5066988;28;20446;-68
2021/08/12 10:26:13;;;;;;;5.53;2.65;;;;;2.80;101861.00;;;;5066758;28;20051;-71
2021/08/12 10:28:43;;;;;;;6.68;2.20;;;;;2.90;101874.00;;;;5066775;28;20028;-67
2021/08/12 10:31:13;;;;;;;16.25;2.70;;;;;3.00;101870.00;;;;5066555;28;20032;-69
2021/08/12 10:33:40;;;;;;;7.70;2.10;;;;;3.00;101859.00;;;;5067524;28;20090;-66
2021/08/12 10:36:06;;;;;;;5.65;2.10;;;;;3.20;101869.00;;;;5066249;28;20426;-69
2021/08/12 10:38:35;;;;;;;7.60;2.20;;;;;3.40;101870.00;;;;5065875;28;20480;-69
2021/08/12 10:41:04;;;;;;;6.25;1.90;;;;;3.70;101847.00;;;;5066765;28;20082;-69
2021/08/12 10:43:33;;;;;;;7.07;1.80;;;;;4.00;101845.00;;;;5066745;28;20036;-69
2021/08/12 10:46:02;;;;;;;2.95;1.60;;;;;4.20;101851.00;;;;5066232;28;20073;-71
2021/08/12 10:48:32;;;;;;;3.15;1.45;;;;;5.20;101810.00;;;;5066370;28;20062;-69
2021/08/12 10:51:07;;;;;;;3.47;1.35;;;;;5.30;101811.00;;;;5066469;28;20028;-69
2021/08/12 10:53:34;;;;;;;5.05;1.40;;;;;5.50;101810.00;;;;5066815;28;20047;-69
2021/08/12 10:56:12;;;;;;;24.65;3.83;;;;;5.70;101834.00;;;;5066888;28;20067;-70
2021/08/12 10:58:44;;;;;;;32.38;4.88;;;;;6.60;101775.00;;;;5066377;28;20111;-69
2021/08/12 11:01:28;;;;;;;15.32;2.33;;;;;7.00;101781.00;;;;5065854;28;20032;-70
2021/08/12 11:03:58;;;;;;;31.63;2.90;;;;;7.30;101795.00;;;;5066801;28;20032;-69
2021/08/12 11:06:38;;;;;;;46.67;8.55;;;;;8.40;101769.00;;;;5066113;28;20082;-71
2021/08/12 11:09:08;;;;;;;30.40;24.60;;;;;9.50;101721.00;;;;5066060;28;20108;-70
2021/08/12 11:11:34;;;;;;;12.75;2.20;;;;;12.00;101672.00;;;;5066925;28;20582;-70
2021/08/12 11:14:10;;;;;;;10.32;2.40;;;;;12.80;101676.00;;;;5066428;28;20787;-69
2021/08/12 11:16:45;;;;;;;6.60;2.25;;;;;13.40;101640.00;;;;5066502;28;20043;-70
2021/08/12 11:19:29;;;;;;;10.82;1.88;;;;;14.10;101607.00;;;;5066157;28;20032;-69
2021/08/12 11:21:59;;;;;;;7.95;1.63;;;;;14.10;101575.00;;;;5066315;28;20043;-68
2021/08/12 11:24:25;;;;;;;9.15;2.28;;;;;14.50;101549.00;;;;5066253;28;20115;-69
2021/08/12 11:26:51;;;;;;;13.90;2.53;;;;;14.40;101574.00;;;;5066422;28;20086;-67
2021/08/12 11:31:52;;;;;;;12.05;4.78;;;;;15.30;101576.00;;;;5066025;28;20044;-69
2021/08/12 11:34:40;;;;;;;11.27;1.92;;;;;15.70;101584.00;;;;5066005;28;20024;-71
2021/08/12 11:37:09;;;;;;;4.97;1.60;;;;;15.80;101629.00;;;;5066760;28;20033;-68
2021/08/12 11:40:01;;;;;;;6.85;1.90;;;;;16.70;101644.00;;;;5066007;28;20492;-71
2021/08/12 11:42:37;;;;;;;5.30;1.73;;;;;16.60;101640.00;;;;5066376;28;20029;-67
2021/08/12 11:45:13;;;;;;;17.25;2.55;;;;;17.20;101615.00;;;;5065955;28;20420;-69
2021/08/12 11:47:42;;;;;;;20.05;2.42;;;;;16.80;101612.00;;;;5065744;28;20148;-69
2021/08/12 11:50:11;;;;;;;14.63;2.55;;;;;16.80;101579.00;;;;5065898;28;20036;-69
2021/08/12 11:52:43;;;;;;;15.63;2.38;;;;;16.90;101566.00;;;;5066149;28;20032;-69
2021/08/12 11:55:10;;;;;;;;;;;;;17.50;101641.00;;;;5066432;28;20020;-70
2021/08/12 11:57:51;;;;;;;12.05;1.75;;;;;14.30;101808.00;;;;5065768;28;19959;-68
2021/08/12 12:00:18;;;;;;;8.33;2.17;;;;;11.60;101826.00;;;;5058007;28;20035;-68
2021/08/12 12:02:58;;;;;;;4.60;1.90;;;;;11.60;101819.00;;;;5046021;28;20315;-71
2021/08/12 12:05:36;;;;;;;5.13;1.80;;;;;12.20;101797.00;;;;5045968;28;20480;-70
2021/08/12 12:08:07;;;;;;;5.80;1.60;;;;;12.80;101788.00;;;;5045845;28;20045;-71
2021/08/12 12:10:33;;;;;;;;;;;;;12.60;101810.00;;;;5046513;28;20128;-68
2021/08/12 12:13:13;;;;;;;4.35;1.58;;;;;12.40;101786.00;;;;5045560;28;19963;-70
2021/08/12 12:15:51;;;;;;;4.90;1.55;;;;;13.40;101788.00;;;;5045333;28;20029;-71
2021/08/12 12:18:37;;;;;;;8.02;2.20;;;;;13.80;101782.00;;;;5046382;28;20554;-69
2021/08/12 12:21:08;;;;;;;6.05;1.98;;;;;13.90;101775.00;;;;5045426;28;20033;-68
2021/08/12 12:23:37;;;;;;;7.13;1.65;;;;;13.30;101772.00;;;;5045705;28;20032;-69
2021/08/12 12:26:05;;;;;;;15.73;2.38;;;;;13.90;101785.00;;;;5045375;28;20048;-69